sensor_id;sensor_type;location;lat;lon;timestamp;pressure;altitude;pressure_sealevel;temperature;humidity
56668;BME280;42542;48.360;10.958;2023-04-27T00:00:41;96192.34;;;7.29;78.48
56668;BME280;42542;48.360;10.958;2023-04-27T00:03:43;96192.34;;;7.29;79.28
56668;BME280;42542;48.360;10.958;2023-04-27T00:06:46;96180.88;;;7.29;79.51
56668;BME280;42542;48.360;10.958;2023-04-27T00:09:49;96170.53;;;7.26;79.28
56668;BME280;42542;48.360;10.958;2023-04-27T00:12:54;96173.75;;;7.20;79.16
56668;BME280;42542;48.360;10.958;2023-04-27T00:15:56;96180.06;;;7.19;79.52
56668;BME280;42542;48.360;10.958;2023-04-27T00:18:58;96178.25;;;7.19;79.71
56668;BME280;42542;48.360;10.958;2023-04-27T00:22:01;96171.38;;;7.17;79.72
56668;BME280;42542;48.360;10.958;2023-04-27T00:25:04;96175.72;;;7.18;80.24
56668;BME280;42542;48.360;10.958;2023-04-27T00:28:06;96173.19;;;7.16;80.19
56668;BME280;42542;48.360;10.958;2023-04-27T00:31:08;96178.81;;;7.13;79.77
56668;BME280;42542;48.360;10.958;2023-04-27T00:34:11;96170.97;;;7.12;79.63
56668;BME280;42542;48.360;10.958;2023-04-27T00:37:14;96170.97;;;7.12;78.80
56668;BME280;42542;48.360;10.958;2023-04-27T00:40:15;96182.28;;;7.14;79.39
56668;BME280;42542;48.360;10.958;2023-04-27T00:43:18;96177.13;;;7.12;79.73
56668;BME280;42542;48.360;10.958;2023-04-27T00:46:20;96168.72;;;7.07;80.44
56668;BME280;42542;48.360;10.958;2023-04-27T00:49:24;96175.72;;;7.08;80.04
56668;BME280;42542;48.360;10.958;2023-04-27T00:52:27;96180.50;;;7.04;80.29
56668;BME280;42542;48.360;10.958;2023-04-27T00:55:30;96185.66;;;6.96;80.63
56668;BME280;42542;48.360;10.958;2023-04-27T00:58:33;96177.44;;;6.90;80.92
56668;BME280;42542;48.360;10.958;2023-04-27T01:01:34;96180.22;;;6.88;81.03
56668;BME280;42542;48.360;10.958;2023-04-27T01:04:37;96179.94;;;6.82;80.67
56668;BME280;42542;48.360;10.958;2023-04-27T01:07:40;96178.69;;;6.76;80.94
56668;BME280;42542;48.360;10.958;2023-04-27T01:10:43;96175.88;;;6.68;81.00
56668;BME280;42542;48.360;10.958;2023-04-27T01:13:46;96176.56;;;6.60;81.08
56668;BME280;42542;48.360;10.958;2023-04-27T01:16:50;96182.56;;;6.53;81.21
56668;BME280;42542;48.360;10.958;2023-04-27T01:19:53;96175.16;;;6.47;81.21
56668;BME280;42542;48.360;10.958;2023-04-27T01:22:58;96174.16;;;6.38;81.99
56668;BME280;42542;48.360;10.958;2023-04-27T01:26:01;96168.97;;;6.27;81.97
56668;BME280;42542;48.360;10.958;2023-04-27T01:29:02;96175.53;;;6.23;82.12
56668;BME280;42542;48.360;10.958;2023-04-27T01:32:05;96181.50;;;6.15;82.42
56668;BME280;42542;48.360;10.958;2023-04-27T01:35:08;96179.53;;;6.08;82.10
56668;BME280;42542;48.360;10.958;2023-04-27T01:38:11;96170.72;;;5.98;82.45
56668;BME280;42542;48.360;10.958;2023-04-27T01:41:14;96175.56;;;5.93;82.46
56668;BME280;42542;48.360;10.958;2023-04-27T01:44:16;96181.53;;;5.85;82.72
56668;BME280;42542;48.360;10.958;2023-04-27T01:47:29;96177.72;;;5.78;83.28
56668;BME280;42542;48.360;10.958;2023-04-27T01:50:31;96183.56;;;5.72;83.57
56668;BME280;42542;48.360;10.958;2023-04-27T01:53:34;96181.56;;;5.64;83.43
56668;BME280;42542;48.360;10.958;2023-04-27T01:56:39;96179.47;;;5.58;83.42
56668;BME280;42542;48.360;10.958;2023-04-27T01:59:41;96184.56;;;5.50;83.97
56668;BME280;42542;48.360;10.958;2023-04-27T02:02:43;96181.63;;;5.43;83.93
56668;BME280;42542;48.360;10.958;2023-04-27T02:05:47;96180.34;;;5.38;84.52
56668;BME280;42542;48.360;10.958;2023-04-27T02:08:49;96179.19;;;5.31;84.54
56668;BME280;42542;48.360;10.958;2023-04-27T02:11:55;96184.72;;;5.28;84.63
56668;BME280;42542;48.360;10.958;2023-04-27T02:15:01;96180.78;;;5.22;85.42
56668;BME280;42542;48.360;10.958;2023-04-27T02:18:05;96190.81;;;5.19;84.92
56668;BME280;42542;48.360;10.958;2023-04-27T02:21:08;96187.72;;;5.14;85.15
56668;BME280;42542;48.360;10.958;2023-04-27T02:24:12;96190.75;;;5.09;85.72
56668;BME280;42542;48.360;10.958;2023-04-27T02:27:14;96195.47;;;5.05;85.60
56668;BME280;42542;48.360;10.958;2023-04-27T02:30:18;96197.53;;;5.02;85.60
56668;BME280;42542;48.360;10.958;2023-04-27T02:33:22;96205.72;;;4.99;85.97
56668;BME280;42542;48.360;10.958;2023-04-27T02:36:24;96197.22;;;4.95;86.04
56668;BME280;42542;48.360;10.958;2023-04-27T02:39:29;96196.72;;;4.90;85.92
56668;BME280;42542;48.360;10.958;2023-04-27T02:42:32;96197.97;;;4.86;86.63
56668;BME280;42542;48.360;10.958;2023-04-27T02:45:36;96194.72;;;4.83;86.37
56668;BME280;42542;48.360;10.958;2023-04-27T02:48:39;96187.44;;;4.75;86.47
56668;BME280;42542;48.360;10.958;2023-04-27T02:51:45;96190.78;;;4.77;86.34
56668;BME280;42542;48.360;10.958;2023-04-27T02:54:48;96199.13;;;4.72;86.82
56668;BME280;42542;48.360;10.958;2023-04-27T02:57:51;96201.44;;;4.66;86.28
56668;BME280;42542;48.360;10.958;2023-04-27T03:00:54;96207.69;;;4.65;86.67
56668;BME280;42542;48.360;10.958;2023-04-27T03:03:57;96202.78;;;4.60;86.57
56668;BME280;42542;48.360;10.958;2023-04-27T03:06:59;96202.19;;;4.57;86.90
56668;BME280;42542;48.360;10.958;2023-04-27T03:10:04;96207.88;;;4.52;86.63
56668;BME280;42542;48.360;10.958;2023-04-27T03:13:05;96205.44;;;4.49;86.68
56668;BME280;42542;48.360;10.958;2023-04-27T03:16:09;96198.25;;;4.40;86.61
56668;BME280;42542;48.360;10.958;2023-04-27T03:19:13;96204.38;;;4.41;86.80
56668;BME280;42542;48.360;10.958;2023-04-27T03:22:16;96204.78;;;4.36;87.30
56668;BME280;42542;48.360;10.958;2023-04-27T03:25:20;96202.75;;;4.28;87.21
56668;BME280;42542;48.360;10.958;2023-04-27T03:28:23;96203.97;;;4.24;87.04
56668;BME280;42542;48.360;10.958;2023-04-27T03:31:25;96205.88;;;4.22;87.49
56668;BME280;42542;48.360;10.958;2023-04-27T03:34:27;96214.19;;;4.18;87.85
56668;BME280;42542;48.360;10.958;2023-04-27T03:37:28;96205.78;;;4.13;87.50
56668;BME280;42542;48.360;10.958;2023-04-27T03:40:31;96216.75;;;4.08;87.58
56668;BME280;42542;48.360;10.958;2023-04-27T03:43:33;96219.63;;;4.05;87.58
56668;BME280;42542;48.360;10.958;2023-04-27T03:46:37;96218.41;;;3.98;87.72
56668;BME280;42542;48.360;10.958;2023-04-27T03:49:39;96230.94;;;3.96;88.05
56668;BME280;42542;48.360;10.958;2023-04-27T03:52:42;96226.97;;;3.90;88.35
56668;BME280;42542;48.360;10.958;2023-04-27T03:55:44;96238.50;;;3.89;88.19
56668;BME280;42542;48.360;10.958;2023-04-27T03:58:46;96238.88;;;3.85;89.12
56668;BME280;42542;48.360;10.958;2023-04-27T04:01:51;96245.94;;;3.84;89.27
56668;BME280;42542;48.360;10.958;2023-04-27T04:04:54;96243.56;;;3.81;89.47
56668;BME280;42542;48.360;10.958;2023-04-27T04:07:56;96251.63;;;3.80;89.99
56668;BME280;42542;48.360;10.958;2023-04-27T04:11:00;96246.56;;;3.77;90.11
56668;BME280;42542;48.360;10.958;2023-04-27T04:14:02;96251.63;;;3.80;90.85
56668;BME280;42542;48.360;10.958;2023-04-27T04:17:08;96252.56;;;3.79;90.59
56668;BME280;42542;48.360;10.958;2023-04-27T04:20:10;96253.31;;;3.81;91.16
56668;BME280;42542;48.360;10.958;2023-04-27T04:23:12;96246.31;;;3.80;90.96
56668;BME280;42542;48.360;10.958;2023-04-27T04:26:14;96250.78;;;3.79;91.76
56668;BME280;42542;48.360;10.958;2023-04-27T04:29:17;96257.16;;;3.88;92.21
56668;BME280;42542;48.360;10.958;2023-04-27T04:32:20;96263.97;;;3.90;92.52
56668;BME280;42542;48.360;10.958;2023-04-27T04:35:24;96258.47;;;3.93;92.56
56668;BME280;42542;48.360;10.958;2023-04-27T04:38:26;96261.69;;;3.97;92.96
56668;BME280;42542;48.360;10.958;2023-04-27T04:41:28;96257.75;;;4.03;92.98
56668;BME280;42542;48.360;10.958;2023-04-27T04:44:32;96258.31;;;4.06;93.07
56668;BME280;42542;48.360;10.958;2023-04-27T04:47:34;96251.25;;;4.07;92.60
56668;BME280;42542;48.360;10.958;2023-04-27T04:50:38;96251.97;;;4.09;92.89
56668;BME280;42542;48.360;10.958;2023-04-27T04:53:40;96266.84;;;4.21;93.12
56668;BME280;42542;48.360;10.958;2023-04-27T04:56:42;96269.75;;;4.29;93.55
56668;BME280;42542;48.360;10.958;2023-04-27T04:59:44;96269.97;;;4.37;93.23
56668;BME280;42542;48.360;10.958;2023-04-27T05:02:46;96280.78;;;4.45;93.37
56668;BME280;42542;48.360;10.958;2023-04-27T05:05:49;96275.84;;;4.52;92.70
56668;BME280;42542;48.360;10.958;2023-04-27T05:08:51;96272.69;;;4.58;92.92
56668;BME280;42542;48.360;10.958;2023-04-27T05:11:53;96264.25;;;4.64;92.65
56668;BME280;42542;48.360;10.958;2023-04-27T05:14:59;96269.75;;;4.72;93.16
56668;BME280;42542;48.360;10.958;2023-04-27T05:18:01;96265.78;;;4.78;92.76
56668;BME280;42542;48.360;10.958;2023-04-27T05:21:04;96285.38;;;4.86;93.11
56668;BME280;42542;48.360;10.958;2023-04-27T05:24:07;96303.41;;;4.92;93.22
56668;BME280;42542;48.360;10.958;2023-04-27T05:27:11;96305.69;;;4.97;92.92
56668;BME280;42542;48.360;10.958;2023-04-27T05:30:16;96309.38;;;5.05;92.56
56668;BME280;42542;48.360;10.958;2023-04-27T05:33:20;96293.97;;;5.10;92.31
56668;BME280;42542;48.360;10.958;2023-04-27T05:36:22;96295.72;;;5.21;92.25
56668;BME280;42542;48.360;10.958;2023-04-27T05:39:24;96300.13;;;5.32;92.64
56668;BME280;42542;48.360;10.958;2023-04-27T05:42:26;96291.66;;;5.38;91.78
56668;BME280;42542;48.360;10.958;2023-04-27T05:45:29;96284.28;;;5.41;91.41
56668;BME280;42542;48.360;10.958;2023-04-27T05:48:34;96279.44;;;5.46;91.13
56668;BME280;42542;48.360;10.958;2023-04-27T05:51:36;96291.22;;;5.54;91.26
56668;BME280;42542;48.360;10.958;2023-04-27T05:54:48;96285.97;;;5.63;91.00
56668;BME280;42542;48.360;10.958;2023-04-27T05:57:51;96286.16;;;5.71;90.89
56668;BME280;42542;48.360;10.958;2023-04-27T06:01:11;96276.97;;;5.75;90.58
56668;BME280;42542;48.360;10.958;2023-04-27T06:04:13;96279.09;;;5.81;90.78
56668;BME280;42542;48.360;10.958;2023-04-27T06:07:15;96283.91;;;5.87;90.78
56668;BME280;42542;48.360;10.958;2023-04-27T06:10:20;96284.53;;;6.01;91.15
56668;BME280;42542;48.360;10.958;2023-04-27T06:13:23;96295.06;;;6.12;91.05
56668;BME280;42542;48.360;10.958;2023-04-27T06:16:25;96270.91;;;6.15;90.62
56668;BME280;42542;48.360;10.958;2023-04-27T06:19:27;96284.94;;;6.26;90.69
56668;BME280;42542;48.360;10.958;2023-04-27T06:22:30;96288.59;;;6.35;90.26
56668;BME280;42542;48.360;10.958;2023-04-27T06:25:33;96289.03;;;6.40;89.77
56668;BME280;42542;48.360;10.958;2023-04-27T06:28:39;96295.91;;;6.52;90.09
56668;BME280;42542;48.360;10.958;2023-04-27T06:31:44;96300.44;;;6.61;89.52
56668;BME280;42542;48.360;10.958;2023-04-27T06:34:48;96292.47;;;6.71;89.61
56668;BME280;42542;48.360;10.958;2023-04-27T06:37:49;96295.41;;;6.78;89.05
56668;BME280;42542;48.360;10.958;2023-04-27T06:40:52;96299.78;;;6.88;88.90
56668;BME280;42542;48.360;10.958;2023-04-27T06:43:55;96302.47;;;6.98;88.14
56668;BME280;42542;48.360;10.958;2023-04-27T06:46:59;96301.63;;;7.07;87.62
56668;BME280;42542;48.360;10.958;2023-04-27T06:50:03;96303.75;;;7.13;86.61
56668;BME280;42542;48.360;10.958;2023-04-27T06:53:06;96301.63;;;7.17;85.64
56668;BME280;42542;48.360;10.958;2023-04-27T06:56:10;96306.66;;;7.29;84.85
56668;BME280;42542;48.360;10.958;2023-04-27T06:59:12;96310.03;;;7.41;85.36
56668;BME280;42542;48.360;10.958;2023-04-27T07:02:14;96308.66;;;7.56;85.49
56668;BME280;42542;48.360;10.958;2023-04-27T07:05:17;96304.97;;;7.67;85.20
56668;BME280;42542;48.360;10.958;2023-04-27T07:08:20;96308.16;;;7.80;84.65
56668;BME280;42542;48.360;10.958;2023-04-27T07:11:22;96304.53;;;7.91;83.03
56668;BME280;42542;48.360;10.958;2023-04-27T07:14:25;96312.19;;;8.03;82.37
56668;BME280;42542;48.360;10.958;2023-04-27T07:17:28;96310.63;;;8.10;81.97
56668;BME280;42542;48.360;10.958;2023-04-27T07:20:33;96311.47;;;8.20;81.59
56668;BME280;42542;48.360;10.958;2023-04-27T07:23:35;96305.00;;;8.33;81.16
56668;BME280;42542;48.360;10.958;2023-04-27T07:26:41;96299.47;;;8.44;80.67
56668;BME280;42542;48.360;10.958;2023-04-27T07:29:43;96292.28;;;8.54;80.19
56668;BME280;42542;48.360;10.958;2023-04-27T07:32:45;96289.72;;;8.62;79.19
56668;BME280;42542;48.360;10.958;2023-04-27T07:35:49;96301.00;;;8.74;79.15
56668;BME280;42542;48.360;10.958;2023-04-27T07:38:51;96299.28;;;8.82;78.33
56668;BME280;42542;48.360;10.958;2023-04-27T07:41:53;96301.72;;;8.93;78.11
56668;BME280;42542;48.360;10.958;2023-04-27T07:44:55;96306.72;;;9.06;78.43
56668;BME280;42542;48.360;10.958;2023-04-27T07:47:58;96292.16;;;9.18;78.61
56668;BME280;42542;48.360;10.958;2023-04-27T07:51:01;96296.97;;;9.32;78.63
56668;BME280;42542;48.360;10.958;2023-04-27T07:54:04;96306.81;;;9.50;77.84
56668;BME280;42542;48.360;10.958;2023-04-27T07:57:07;96307.41;;;9.61;76.52
56668;BME280;42542;48.360;10.958;2023-04-27T08:00:11;96307.69;;;9.76;76.60
56668;BME280;42542;48.360;10.958;2023-04-27T08:03:13;96306.94;;;9.84;74.61
56668;BME280;42542;48.360;10.958;2023-04-27T08:06:17;96312.19;;;9.93;74.21
56668;BME280;42542;48.360;10.958;2023-04-27T08:09:19;96305.59;;;10.05;74.74
56668;BME280;42542;48.360;10.958;2023-04-27T08:12:22;96304.34;;;10.17;74.87
56668;BME280;42542;48.360;10.958;2023-04-27T08:15:23;96305.59;;;10.31;73.73
56668;BME280;42542;48.360;10.958;2023-04-27T08:18:25;96305.34;;;10.42;73.82
56668;BME280;42542;48.360;10.958;2023-04-27T08:21:27;96309.56;;;10.53;72.14
56668;BME280;42542;48.360;10.958;2023-04-27T08:24:30;96312.13;;;10.63;70.64
56668;BME280;42542;48.360;10.958;2023-04-27T08:27:35;96297.97;;;10.70;71.36
56668;BME280;42542;48.360;10.958;2023-04-27T08:30:37;96304.22;;;10.87;71.20
56668;BME280;42542;48.360;10.958;2023-04-27T08:33:39;96309.78;;;11.02;71.18
56668;BME280;42542;48.360;10.958;2023-04-27T08:36:56;96305.47;;;11.17;71.02
56668;BME280;42542;48.360;10.958;2023-04-27T08:40:05;96309.69;;;11.27;69.79
56668;BME280;42542;48.360;10.958;2023-04-27T08:43:09;96301.00;;;11.33;69.72
56668;BME280;42542;48.360;10.958;2023-04-27T08:46:11;96300.53;;;11.38;69.12
56668;BME280;42542;48.360;10.958;2023-04-27T08:49:13;96300.03;;;11.51;68.50
56668;BME280;42542;48.360;10.958;2023-04-27T08:52:18;96297.69;;;11.56;67.07
56668;BME280;42542;48.360;10.958;2023-04-27T08:55:20;96296.69;;;11.57;67.38
56668;BME280;42542;48.360;10.958;2023-04-27T08:58:37;96302.72;;;11.67;67.17
56668;BME280;42542;48.360;10.958;2023-04-27T09:01:43;96300.22;;;11.73;66.00
56668;BME280;42542;48.360;10.958;2023-04-27T09:04:47;96291.19;;;11.83;66.38
56668;BME280;42542;48.360;10.958;2023-04-27T09:07:56;96284.34;;;11.88;67.06
56668;BME280;42542;48.360;10.958;2023-04-27T09:10:58;96284.66;;;11.93;67.26
56668;BME280;42542;48.360;10.958;2023-04-27T09:14:16;96284.66;;;12.01;67.03
56668;BME280;42542;48.360;10.958;2023-04-27T09:17:26;96280.47;;;12.07;67.00
56668;BME280;42542;48.360;10.958;2023-04-27T09:20:30;96275.59;;;12.10;66.46
56668;BME280;42542;48.360;10.958;2023-04-27T09:23:37;96280.78;;;12.20;66.48
56668;BME280;42542;48.360;10.958;2023-04-27T09:26:40;96266.84;;;12.25;65.78
56668;BME280;42542;48.360;10.958;2023-04-27T09:29:44;96274.22;;;12.39;65.81
56668;BME280;42542;48.360;10.958;2023-04-27T09:35:59;96276.19;;;12.53;64.32
56668;BME280;42542;48.360;10.958;2023-04-27T09:39:02;96274.31;;;12.53;63.66
56668;BME280;42542;48.360;10.958;2023-04-27T09:42:07;96277.38;;;12.50;62.84
56668;BME280;42542;48.360;10.958;2023-04-27T09:45:10;96271.31;;;12.57;62.43
56668;BME280;42542;48.360;10.958;2023-04-27T09:48:13;96264.28;;;12.47;59.38
56668;BME280;42542;48.360;10.958;2023-04-27T09:51:14;96257.22;;;12.55;60.83
56668;BME280;42542;48.360;10.958;2023-04-27T09:54:17;96265.91;;;12.65;61.65
56668;BME280;42542;48.360;10.958;2023-04-27T09:57:26;96257.69;;;12.66;60.97
56668;BME280;42542;48.360;10.958;2023-04-27T10:07:37;96259.31;;;12.75;58.48
56668;BME280;42542;48.360;10.958;2023-04-27T10:10:48;96249.78;;;12.73;56.67
56668;BME280;42542;48.360;10.958;2023-04-27T10:13:53;96251.94;;;12.77;58.22
56668;BME280;42542;48.360;10.958;2023-04-27T10:16:56;96241.72;;;12.81;58.58
56668;BME280;42542;48.360;10.958;2023-04-27T10:20:04;96247.06;;;12.81;57.99
56668;BME280;42542;48.360;10.958;2023-04-27T10:23:26;96253.75;;;12.85;58.19
56668;BME280;42542;48.360;10.958;2023-04-27T10:26:29;96248.22;;;12.86;57.03
56668;BME280;42542;48.360;10.958;2023-04-27T10:29:40;96249.31;;;13.00;58.13
56668;BME280;42542;48.360;10.958;2023-04-27T10:32:57;96244.72;;;13.17;57.84
56668;BME280;42542;48.360;10.958;2023-04-27T10:35:59;96243.13;;;13.31;58.20
56668;BME280;42542;48.360;10.958;2023-04-27T10:39:02;96245.03;;;13.45;57.61
56668;BME280;42542;48.360;10.958;2023-04-27T10:42:25;96246.00;;;13.52;56.71
56668;BME280;42542;48.360;10.958;2023-04-27T10:45:32;96238.06;;;13.58;56.62
56668;BME280;42542;48.360;10.958;2023-04-27T10:48:35;96236.97;;;13.67;56.70
56668;BME280;42542;48.360;10.958;2023-04-27T10:51:37;96236.25;;;13.74;55.59
56668;BME280;42542;48.360;10.958;2023-04-27T10:54:44;96229.81;;;13.83;56.24
56668;BME280;42542;48.360;10.958;2023-04-27T10:57:49;96236.75;;;13.92;56.77
56668;BME280;42542;48.360;10.958;2023-04-27T11:00:52;96229.47;;;14.00;56.39
56668;BME280;42542;48.360;10.958;2023-04-27T11:03:58;96227.88;;;14.06;55.79
56668;BME280;42542;48.360;10.958;2023-04-27T11:07:01;96230.88;;;14.11;56.22
56668;BME280;42542;48.360;10.958;2023-04-27T11:10:06;96222.59;;;14.13;54.44
56668;BME280;42542;48.360;10.958;2023-04-27T11:13:14;96221.13;;;14.10;53.83
56668;BME280;42542;48.360;10.958;2023-04-27T11:16:17;96225.75;;;14.01;53.44
56668;BME280;42542;48.360;10.958;2023-04-27T11:19:22;96232.81;;;14.02;51.71
56668;BME280;42542;48.360;10.958;2023-04-27T11:22:25;96239.81;;;13.89;48.73
56668;BME280;42542;48.360;10.958;2023-04-27T11:25:27;96227.47;;;13.80;48.82
56668;BME280;42542;48.360;10.958;2023-04-27T11:28:30;96240.72;;;13.81;48.96
56668;BME280;42542;48.360;10.958;2023-04-27T11:31:43;96233.50;;;13.82;47.10
56668;BME280;42542;48.360;10.958;2023-04-27T11:34:50;96225.91;;;13.85;47.18
56668;BME280;42542;48.360;10.958;2023-04-27T11:37:59;96230.09;;;13.88;48.93
56668;BME280;42542;48.360;10.958;2023-04-27T11:41:06;96226.38;;;13.89;50.08
56668;BME280;42542;48.360;10.958;2023-04-27T11:44:11;96238.25;;;13.94;49.95
56668;BME280;42542;48.360;10.958;2023-04-27T11:47:17;96224.47;;;13.97;49.30
56668;BME280;42542;48.360;10.958;2023-04-27T11:50:34;96226.59;;;14.02;50.25
56668;BME280;42542;48.360;10.958;2023-04-27T11:53:39;96228.91;;;14.05;48.69
56668;BME280;42542;48.360;10.958;2023-04-27T11:56:44;96230.78;;;14.04;46.84
56668;BME280;42542;48.360;10.958;2023-04-27T11:59:47;96230.41;;;14.07;47.16
56668;BME280;42542;48.360;10.958;2023-04-27T12:02:49;96226.44;;;14.18;47.51
56668;BME280;42542;48.360;10.958;2023-04-27T12:05:51;96215.88;;;14.31;48.12
56668;BME280;42542;48.360;10.958;2023-04-27T12:08:57;96218.19;;;14.49;47.66
56668;BME280;42542;48.360;10.958;2023-04-27T12:12:00;96215.31;;;14.65;47.70
56668;BME280;42542;48.360;10.958;2023-04-27T12:15:03;96218.84;;;14.80;47.31
56668;BME280;42542;48.360;10.958;2023-04-27T12:18:05;96203.53;;;14.81;45.10
56668;BME280;42542;48.360;10.958;2023-04-27T12:21:08;96208.16;;;14.87;45.61
56668;BME280;42542;48.360;10.958;2023-04-27T12:24:11;96217.63;;;14.83;43.54
56668;BME280;42542;48.360;10.958;2023-04-27T12:27:16;96211.69;;;14.88;45.05
56668;BME280;42542;48.360;10.958;2023-04-27T12:30:18;96227.91;;;14.94;44.80
56668;BME280;42542;48.360;10.958;2023-04-27T12:33:20;96217.69;;;15.04;45.01
56668;BME280;42542;48.360;10.958;2023-04-27T12:36:23;96211.97;;;15.14;45.90
56668;BME280;42542;48.360;10.958;2023-04-27T12:39:26;96216.28;;;15.30;46.10
56668;BME280;42542;48.360;10.958;2023-04-27T12:42:28;96215.28;;;15.52;46.92
56668;BME280;42542;48.360;10.958;2023-04-27T12:45:31;96211.53;;;15.68;46.23
56668;BME280;42542;48.360;10.958;2023-04-27T12:48:33;96216.66;;;15.63;43.84
56668;BME280;42542;48.360;10.958;2023-04-27T12:51:37;96213.69;;;15.57;44.19
56668;BME280;42542;48.360;10.958;2023-04-27T12:54:40;96205.19;;;15.54;43.99
56668;BME280;42542;48.360;10.958;2023-04-27T12:57:45;96206.44;;;15.58;44.98
56668;BME280;42542;48.360;10.958;2023-04-27T13:00:50;96201.06;;;15.58;44.71
56668;BME280;42542;48.360;10.958;2023-04-27T13:03:54;96202.72;;;15.59;43.80
56668;BME280;42542;48.360;10.958;2023-04-27T13:06:57;96198.44;;;15.65;44.99
56668;BME280;42542;48.360;10.958;2023-04-27T13:10:02;96210.69;;;15.67;43.96
56668;BME280;42542;48.360;10.958;2023-04-27T13:13:06;96201.34;;;15.63;43.29
56668;BME280;42542;48.360;10.958;2023-04-27T13:16:08;96206.25;;;15.59;43.95
56668;BME280;42542;48.360;10.958;2023-04-27T13:19:11;96203.38;;;15.61;44.08
56668;BME280;42542;48.360;10.958;2023-04-27T13:22:13;96191.97;;;15.59;43.67
56668;BME280;42542;48.360;10.958;2023-04-27T13:25:16;96201.34;;;15.63;44.88
56668;BME280;42542;48.360;10.958;2023-04-27T13:28:19;96189.56;;;15.71;44.33
56668;BME280;42542;48.360;10.958;2023-04-27T13:31:21;96198.69;;;15.70;43.26
56668;BME280;42542;48.360;10.958;2023-04-27T13:34:24;96201.13;;;15.65;44.37
56668;BME280;42542;48.360;10.958;2023-04-27T13:37:30;96193.03;;;15.65;44.51
56668;BME280;42542;48.360;10.958;2023-04-27T13:40:32;96187.88;;;15.63;45.05
56668;BME280;42542;48.360;10.958;2023-04-27T13:43:34;96182.38;;;15.78;45.60
56668;BME280;42542;48.360;10.958;2023-04-27T13:46:36;96186.59;;;15.87;45.26
56668;BME280;42542;48.360;10.958;2023-04-27T13:49:38;96170.91;;;15.97;45.59
56668;BME280;42542;48.360;10.958;2023-04-27T13:52:43;96172.19;;;16.01;45.11
56668;BME280;42542;48.360;10.958;2023-04-27T13:55:47;96179.69;;;16.06;44.76
56668;BME280;42542;48.360;10.958;2023-04-27T13:58:49;96178.25;;;16.10;45.31
56668;BME280;42542;48.360;10.958;2023-04-27T14:01:53;96171.25;;;16.15;45.30
56668;BME280;42542;48.360;10.958;2023-04-27T14:04:56;96165.47;;;16.18;45.08
56668;BME280;42542;48.360;10.958;2023-04-27T14:07:57;96161.31;;;16.22;45.21
56668;BME280;42542;48.360;10.958;2023-04-27T14:11:04;96170.59;;;16.41;45.71
56668;BME280;42542;48.360;10.958;2023-04-27T14:14:07;96155.72;;;16.58;45.15
56668;BME280;42542;48.360;10.958;2023-04-27T14:17:09;96157.28;;;16.81;44.82
56668;BME280;42542;48.360;10.958;2023-04-27T14:20:11;96159.44;;;16.98;43.87
56668;BME280;42542;48.360;10.958;2023-04-27T14:23:14;96153.66;;;17.14;43.84
56668;BME280;42542;48.360;10.958;2023-04-27T14:26:16;96160.53;;;17.24;42.66
56668;BME280;42542;48.360;10.958;2023-04-27T14:29:19;96155.16;;;17.37;41.99
56668;BME280;42542;48.360;10.958;2023-04-27T14:32:22;96153.53;;;17.42;42.44
56668;BME280;42542;48.360;10.958;2023-04-27T14:35:26;96148.53;;;17.46;42.53
56668;BME280;42542;48.360;10.958;2023-04-27T14:38:29;96152.91;;;17.53;42.74
56668;BME280;42542;48.360;10.958;2023-04-27T14:41:31;96145.41;;;17.55;42.03
56668;BME280;42542;48.360;10.958;2023-04-27T14:44:32;96150.38;;;17.52;42.58
56668;BME280;42542;48.360;10.958;2023-04-27T14:47:37;96158.69;;;17.44;41.07
56668;BME280;42542;48.360;10.958;2023-04-27T14:50:38;96153.69;;;17.28;41.16
56668;BME280;42542;48.360;10.958;2023-04-27T14:53:41;96165.53;;;17.13;40.84
56668;BME280;42542;48.360;10.958;2023-04-27T14:56:44;96165.88;;;16.97;40.71
56668;BME280;42542;48.360;10.958;2023-04-27T14:59:51;96158.97;;;16.82;41.88
56668;BME280;42542;48.360;10.958;2023-04-27T15:02:55;96161.25;;;16.78;42.98
56668;BME280;42542;48.360;10.958;2023-04-27T15:05:58;96170.56;;;16.75;42.91
56668;BME280;42542;48.360;10.958;2023-04-27T15:09:01;96168.69;;;16.69;42.91
56668;BME280;42542;48.360;10.958;2023-04-27T15:12:05;96162.84;;;16.66;43.34
56668;BME280;42542;48.360;10.958;2023-04-27T15:15:10;96157.44;;;16.66;44.02
56668;BME280;42542;48.360;10.958;2023-04-27T15:18:14;96165.34;;;16.67;43.88
56668;BME280;42542;48.360;10.958;2023-04-27T15:21:16;96161.81;;;16.67;43.80
56668;BME280;42542;48.360;10.958;2023-04-27T15:24:17;96158.09;;;16.68;43.78
56668;BME280;42542;48.360;10.958;2023-04-27T15:27:19;96160.81;;;16.74;43.53
56668;BME280;42542;48.360;10.958;2023-04-27T15:30:21;96156.06;;;16.83;43.47
56668;BME280;42542;48.360;10.958;2023-04-27T15:33:23;96155.28;;;16.96;43.56
56668;BME280;42542;48.360;10.958;2023-04-27T15:36:24;96156.59;;;17.20;43.01
56668;BME280;42542;48.360;10.958;2023-04-27T15:39:29;96156.63;;;17.46;42.51
56668;BME280;42542;48.360;10.958;2023-04-27T15:42:31;96158.97;;;17.62;42.12
56668;BME280;42542;48.360;10.958;2023-04-27T15:45:35;96158.78;;;17.70;41.93
56668;BME280;42542;48.360;10.958;2023-04-27T15:48:40;96154.81;;;17.66;41.68
56668;BME280;42542;48.360;10.958;2023-04-27T15:51:48;96155.78;;;17.58;41.35
56668;BME280;42542;48.360;10.958;2023-04-27T15:54:50;96161.63;;;17.49;41.62
56668;BME280;42542;48.360;10.958;2023-04-27T15:57:52;96158.28;;;17.40;41.24
56668;BME280;42542;48.360;10.958;2023-04-27T16:00:54;96155.97;;;17.31;41.68
56668;BME280;42542;48.360;10.958;2023-04-27T16:03:57;96166.13;;;17.22;42.56
56668;BME280;42542;48.360;10.958;2023-04-27T16:06:58;96158.44;;;17.12;42.55
56668;BME280;42542;48.360;10.958;2023-04-27T16:10:01;96157.34;;;17.00;42.71
56668;BME280;42542;48.360;10.958;2023-04-27T16:13:03;96153.59;;;16.95;43.27
56668;BME280;42542;48.360;10.958;2023-04-27T16:16:07;96140.53;;;16.92;42.80